sensor_id;sensor_type;location;lat;lon;timestamp;pressure;altitude;pressure_sealevel;temperature;humidity
10348;BME280;5220;43.192;23.284;2024-03-06T00:01:00;96788.75;;;7.61;100.00
10348;BME280;5220;43.192;23.284;2024-03-06T00:03:26;96790.41;;;7.62;100.00
10348;BME280;5220;43.192;23.284;2024-03-06T00:05:53;96787.72;;;7.63;100.00
10348;BME280;5220;43.192;23.284;2024-03-06T00:08:20;96792.09;;;7.63;100.00
10348;BME280;5220;43.192;23.284;2024-03-06T00:10:48;96792.81;;;7.65;100.00
10348;BME280;5220;43.192;23.284;2024-03-06T00:13:15;96793.66;;;7.65;100.00
10348;BME280;5220;43.192;23.284;2024-03-06T00:15:41;96787.63;;;7.65;100.00
10348;BME280;5220;43.192;23.284;2024-03-06T00:18:08;96786.09;;;7.48;100.00
10348;BME280;5220;43.192;23.284;2024-03-06T00:20:35;96783.44;;;7.49;100.00
10348;BME280;5220;43.192;23.284;2024-03-06T00:23:02;96779.50;;;7.56;100.00
10348;BME280;5220;43.192;23.284;2024-03-06T00:25:28;96775.38;;;7.27;100.00
10348;BME280;5220;43.192;23.284;2024-03-06T00:27:56;96770.59;;;7.07;100.00
10348;BME280;5220;43.192;23.284;2024-03-06T00:30:23;96765.44;;;6.93;100.00
10348;BME280;5220;43.192;23.284;2024-03-06T00:32:50;96772.25;;;7.08;100.00
10348;BME280;5220;43.192;23.284;2024-03-06T00:35:17;96769.81;;;6.78;100.00
10348;BME280;5220;43.192;23.284;2024-03-06T00:37:44;96768.03;;;6.93;100.00
10348;BME280;5220;43.192;23.284;2024-03-06T00:40:12;96767.50;;;6.88;100.00
10348;BME280;5220;43.192;23.284;2024-03-06T00:42:39;96761.91;;;7.08;100.00
10348;BME280;5220;43.192;23.284;2024-03-06T00:45:08;96763.38;;;7.12;100.00
10348;BME280;5220;43.192;23.284;2024-03-06T00:47:35;96764.13;;;7.14;100.00
10348;BME280;5220;43.192;23.284;2024-03-06T00:50:02;96770.25;;;6.99;100.00
10348;BME280;5220;43.192;23.284;2024-03-06T00:52:30;96760.38;;;6.77;100.00
10348;BME280;5220;43.192;23.284;2024-03-06T00:54:57;96763.59;;;6.95;100.00
10348;BME280;5220;43.192;23.284;2024-03-06T00:57:23;96760.63;;;7.01;100.00
10348;BME280;5220;43.192;23.284;2024-03-06T00:59:50;96766.91;;;7.11;100.00
10348;BME280;5220;43.192;23.284;2024-03-06T01:02:18;96755.53;;;7.14;100.00
10348;BME280;5220;43.192;23.284;2024-03-06T01:04:45;96753.56;;;7.17;100.00
10348;BME280;5220;43.192;23.284;2024-03-06T01:07:11;96754.22;;;7.21;100.00
10348;BME280;5220;43.192;23.284;2024-03-06T01:09:38;96760.03;;;7.24;100.00
10348;BME280;5220;43.192;23.284;2024-03-06T01:12:05;96757.56;;;7.09;100.00
10348;BME280;5220;43.192;23.284;2024-03-06T01:14:32;96759.66;;;7.16;100.00
10348;BME280;5220;43.192;23.284;2024-03-06T01:16:59;96757.84;;;7.18;100.00
10348;BME280;5220;43.192;23.284;2024-03-06T01:19:27;96758.88;;;7.01;100.00
10348;BME280;5220;43.192;23.284;2024-03-06T01:21:53;96752.84;;;7.15;100.00
10348;BME280;5220;43.192;23.284;2024-03-06T01:24:20;96757.38;;;7.12;100.00
10348;BME280;5220;43.192;23.284;2024-03-06T01:26:47;96748.06;;;7.09;100.00
10348;BME280;5220;43.192;23.284;2024-03-06T01:29:13;96757.69;;;6.79;100.00
10348;BME280;5220;43.192;23.284;2024-03-06T01:31:40;96751.41;;;6.97;100.00
10348;BME280;5220;43.192;23.284;2024-03-06T01:34:06;96752.25;;;6.83;100.00
10348;BME280;5220;43.192;23.284;2024-03-06T01:36:35;96757.34;;;6.85;100.00
10348;BME280;5220;43.192;23.284;2024-03-06T01:39:02;96766.00;;;6.84;100.00
10348;BME280;5220;43.192;23.284;2024-03-06T01:41:28;96771.66;;;6.90;100.00
10348;BME280;5220;43.192;23.284;2024-03-06T01:43:55;96774.78;;;6.81;100.00
10348;BME280;5220;43.192;23.284;2024-03-06T01:46:22;96787.16;;;6.62;100.00
10348;BME280;5220;43.192;23.284;2024-03-06T01:48:48;96766.09;;;6.40;100.00
10348;BME280;5220;43.192;23.284;2024-03-06T01:51:15;96769.16;;;6.46;100.00
10348;BME280;5220;43.192;23.284;2024-03-06T01:53:43;96776.53;;;6.53;100.00
10348;BME280;5220;43.192;23.284;2024-03-06T01:56:10;96774.25;;;6.62;100.00
10348;BME280;5220;43.192;23.284;2024-03-06T01:58:42;96777.56;;;6.64;100.00
10348;BME280;5220;43.192;23.284;2024-03-06T02:01:12;96781.59;;;6.54;100.00
10348;BME280;5220;43.192;23.284;2024-03-06T02:03:39;96786.34;;;6.47;100.00
10348;BME280;5220;43.192;23.284;2024-03-06T02:06:07;96787.69;;;6.39;100.00
10348;BME280;5220;43.192;23.284;2024-03-06T02:08:36;96784.84;;;6.43;100.00
10348;BME280;5220;43.192;23.284;2024-03-06T02:11:04;96780.03;;;6.37;100.00
10348;BME280;5220;43.192;23.284;2024-03-06T02:13:32;96780.19;;;6.20;100.00
10348;BME280;5220;43.192;23.284;2024-03-06T02:15:59;96783.13;;;6.14;100.00
10348;BME280;5220;43.192;23.284;2024-03-06T02:18:26;96774.94;;;5.92;100.00
10348;BME280;5220;43.192;23.284;2024-03-06T02:20:54;96771.97;;;5.84;100.00
10348;BME280;5220;43.192;23.284;2024-03-06T02:23:20;96768.53;;;5.99;100.00
10348;BME280;5220;43.192;23.284;2024-03-06T02:25:47;96763.09;;;6.04;100.00
10348;BME280;5220;43.192;23.284;2024-03-06T02:28:14;96779.94;;;5.95;100.00
10348;BME280;5220;43.192;23.284;2024-03-06T02:30:42;96777.09;;;6.00;100.00
10348;BME280;5220;43.192;23.284;2024-03-06T02:33:08;96780.00;;;6.09;100.00
10348;BME280;5220;43.192;23.284;2024-03-06T02:35:35;96779.22;;;6.07;100.00
10348;BME280;5220;43.192;23.284;2024-03-06T02:38:04;96771.53;;;6.21;100.00
10348;BME280;5220;43.192;23.284;2024-03-06T02:40:31;96780.16;;;6.06;100.00
10348;BME280;5220;43.192;23.284;2024-03-06T02:42:58;96777.22;;;6.12;100.00
10348;BME280;5220;43.192;23.284;2024-03-06T02:45:24;96787.56;;;6.12;100.00
10348;BME280;5220;43.192;23.284;2024-03-06T02:47:51;96788.66;;;6.08;100.00
10348;BME280;5220;43.192;23.284;2024-03-06T02:50:18;96782.22;;;6.15;100.00
10348;BME280;5220;43.192;23.284;2024-03-06T02:52:46;96777.88;;;6.16;100.00
10348;BME280;5220;43.192;23.284;2024-03-06T02:55:14;96790.19;;;5.97;100.00
10348;BME280;5220;43.192;23.284;2024-03-06T02:57:41;96785.47;;;5.73;100.00
10348;BME280;5220;43.192;23.284;2024-03-06T03:00:08;96777.06;;;5.70;100.00
10348;BME280;5220;43.192;23.284;2024-03-06T03:02:38;96780.97;;;5.77;100.00
10348;BME280;5220;43.192;23.284;2024-03-06T03:05:06;96794.50;;;5.66;100.00
10348;BME280;5220;43.192;23.284;2024-03-06T03:07:32;96782.97;;;5.72;100.00
10348;BME280;5220;43.192;23.284;2024-03-06T03:09:59;96779.81;;;5.67;100.00
10348;BME280;5220;43.192;23.284;2024-03-06T03:12:27;96784.03;;;5.83;100.00
10348;BME280;5220;43.192;23.284;2024-03-06T03:14:54;96784.13;;;5.82;100.00
10348;BME280;5220;43.192;23.284;2024-03-06T03:17:20;96785.22;;;5.93;100.00
10348;BME280;5220;43.192;23.284;2024-03-06T03:19:47;96783.84;;;6.02;100.00
10348;BME280;5220;43.192;23.284;2024-03-06T03:22:14;96786.06;;;6.08;100.00
10348;BME280;5220;43.192;23.284;2024-03-06T03:24:41;96796.63;;;5.89;100.00
10348;BME280;5220;43.192;23.284;2024-03-06T03:27:08;96799.44;;;6.01;100.00
10348;BME280;5220;43.192;23.284;2024-03-06T03:29:36;96805.63;;;6.12;100.00
10348;BME280;5220;43.192;23.284;2024-03-06T03:32:03;96802.75;;;6.03;100.00
10348;BME280;5220;43.192;23.284;2024-03-06T03:34:30;96801.25;;;5.99;100.00
10348;BME280;5220;43.192;23.284;2024-03-06T03:36:57;96800.53;;;5.97;100.00
10348;BME280;5220;43.192;23.284;2024-03-06T03:39:24;96802.09;;;5.83;100.00
10348;BME280;5220;43.192;23.284;2024-03-06T03:41:52;96810.66;;;6.00;100.00
10348;BME280;5220;43.192;23.284;2024-03-06T03:44:19;96810.81;;;6.12;100.00
10348;BME280;5220;43.192;23.284;2024-03-06T03:46:47;96811.81;;;6.10;100.00
10348;BME280;5220;43.192;23.284;2024-03-06T03:49:14;96819.69;;;6.22;100.00
10348;BME280;5220;43.192;23.284;2024-03-06T03:51:41;96813.16;;;6.31;100.00
10348;BME280;5220;43.192;23.284;2024-03-06T03:54:08;96815.31;;;6.23;100.00
10348;BME280;5220;43.192;23.284;2024-03-06T03:56:35;96818.38;;;6.29;100.00
10348;BME280;5220;43.192;23.284;2024-03-06T03:59:01;96832.97;;;6.30;100.00
10348;BME280;5220;43.192;23.284;2024-03-06T04:01:28;96826.63;;;6.36;100.00
10348;BME280;5220;43.192;23.284;2024-03-06T04:03:56;96825.25;;;6.01;100.00
10348;BME280;5220;43.192;23.284;2024-03-06T04:06:23;96826.84;;;6.17;100.00
10348;BME280;5220;43.192;23.284;2024-03-06T04:08:50;96826.06;;;6.31;100.00
10348;BME280;5220;43.192;23.284;2024-03-06T04:11:17;96823.78;;;6.40;100.00
10348;BME280;5220;43.192;23.284;2024-03-06T04:13:43;96830.25;;;6.47;100.00
10348;BME280;5220;43.192;23.284;2024-03-06T04:16:15;96830.81;;;6.53;100.00
10348;BME280;5220;43.192;23.284;2024-03-06T04:18:42;96834.88;;;6.57;100.00
10348;BME280;5220;43.192;23.284;2024-03-06T04:21:11;96839.41;;;6.53;100.00
10348;BME280;5220;43.192;23.284;2024-03-06T04:23:39;96845.22;;;6.57;100.00
10348;BME280;5220;43.192;23.284;2024-03-06T04:26:06;96835.97;;;6.53;100.00
10348;BME280;5220;43.192;23.284;2024-03-06T04:28:33;96839.00;;;6.45;100.00
10348;BME280;5220;43.192;23.284;2024-03-06T04:30:59;96837.53;;;6.41;100.00
10348;BME280;5220;43.192;23.284;2024-03-06T04:33:26;96836.03;;;6.37;100.00
10348;BME280;5220;43.192;23.284;2024-03-06T04:35:53;96840.13;;;6.41;100.00
10348;BME280;5220;43.192;23.284;2024-03-06T04:38:21;96834.94;;;6.41;100.00
10348;BME280;5220;43.192;23.284;2024-03-06T04:40:47;96839.28;;;6.40;100.00
10348;BME280;5220;43.192;23.284;2024-03-06T04:43:14;96829.50;;;6.45;100.00
10348;BME280;5220;43.192;23.284;2024-03-06T04:45:41;96838.94;;;6.46;100.00
10348;BME280;5220;43.192;23.284;2024-03-06T04:48:08;96837.78;;;6.36;100.00
10348;BME280;5220;43.192;23.284;2024-03-06T04:50:34;96841.94;;;6.39;100.00
10348;BME280;5220;43.192;23.284;2024-03-06T04:53:01;96840.13;;;6.41;100.00
10348;BME280;5220;43.192;23.284;2024-03-06T04:55:29;96847.03;;;6.40;100.00
10348;BME280;5220;43.192;23.284;2024-03-06T04:57:56;96853.03;;;6.41;100.00
10348;BME280;5220;43.192;23.284;2024-03-06T05:00:23;96837.91;;;6.49;100.00
10348;BME280;5220;43.192;23.284;2024-03-06T05:02:49;96847.69;;;6.58;100.00
10348;BME280;5220;43.192;23.284;2024-03-06T05:05:16;96852.50;;;6.64;100.00
10348;BME280;5220;43.192;23.284;2024-03-06T05:07:43;96862.84;;;6.64;100.00
10348;BME280;5220;43.192;23.284;2024-03-06T05:10:10;96872.50;;;6.46;100.00
10348;BME280;5220;43.192;23.284;2024-03-06T05:12:38;96865.53;;;6.63;100.00
10348;BME280;5220;43.192;23.284;2024-03-06T05:15:06;96868.13;;;6.63;100.00
10348;BME280;5220;43.192;23.284;2024-03-06T05:17:33;96870.88;;;6.74;100.00
10348;BME280;5220;43.192;23.284;2024-03-06T05:20:00;96876.06;;;6.60;100.00
10348;BME280;5220;43.192;23.284;2024-03-06T05:22:26;96878.75;;;6.72;100.00
10348;BME280;5220;43.192;23.284;2024-03-06T05:24:53;96886.16;;;6.78;100.00
10348;BME280;5220;43.192;23.284;2024-03-06T05:27:20;96888.72;;;6.78;100.00
10348;BME280;5220;43.192;23.284;2024-03-06T05:29:48;96895.00;;;6.74;100.00
10348;BME280;5220;43.192;23.284;2024-03-06T05:32:15;96899.50;;;6.71;100.00
10348;BME280;5220;43.192;23.284;2024-03-06T05:34:41;96895.94;;;6.43;100.00
10348;BME280;5220;43.192;23.284;2024-03-06T05:37:09;96898.72;;;6.40;100.00
10348;BME280;5220;43.192;23.284;2024-03-06T05:39:36;96891.78;;;6.41;100.00
10348;BME280;5220;43.192;23.284;2024-03-06T05:42:03;96890.88;;;6.26;100.00
10348;BME280;5220;43.192;23.284;2024-03-06T05:44:30;96886.22;;;6.33;100.00
10348;BME280;5220;43.192;23.284;2024-03-06T05:46:59;96880.97;;;6.34;100.00
10348;BME280;5220;43.192;23.284;2024-03-06T05:49:27;96881.31;;;6.28;100.00
10348;BME280;5220;43.192;23.284;2024-03-06T05:51:54;96875.28;;;6.43;100.00
10348;BME280;5220;43.192;23.284;2024-03-06T05:54:21;96883.44;;;6.36;100.00
10348;BME280;5220;43.192;23.284;2024-03-06T05:56:48;96883.16;;;6.56;100.00
10348;BME280;5220;43.192;23.284;2024-03-06T05:59:17;96889.84;;;6.44;100.00
10348;BME280;5220;43.192;23.284;2024-03-06T06:01:44;96882.78;;;6.62;100.00
10348;BME280;5220;43.192;23.284;2024-03-06T06:04:13;96887.31;;;6.73;100.00
10348;BME280;5220;43.192;23.284;2024-03-06T06:06:40;96890.28;;;6.81;100.00
10348;BME280;5220;43.192;23.284;2024-03-06T06:09:06;96901.59;;;6.94;100.00
10348;BME280;5220;43.192;23.284;2024-03-06T06:11:38;96905.38;;;7.02;100.00
10348;BME280;5220;43.192;23.284;2024-03-06T06:14:04;96907.13;;;7.02;100.00
10348;BME280;5220;43.192;23.284;2024-03-06T06:16:35;96909.00;;;6.56;100.00
10348;BME280;5220;43.192;23.284;2024-03-06T06:19:02;96895.06;;;6.73;100.00
10348;BME280;5220;43.192;23.284;2024-03-06T06:21:30;96893.78;;;6.36;100.00
10348;BME280;5220;43.192;23.284;2024-03-06T06:23:57;96886.03;;;6.66;100.00
10348;BME280;5220;43.192;23.284;2024-03-06T06:26:23;96894.34;;;6.71;100.00
10348;BME280;5220;43.192;23.284;2024-03-06T06:28:50;96890.66;;;6.89;100.00
10348;BME280;5220;43.192;23.284;2024-03-06T06:31:17;96900.81;;;6.92;100.00
10348;BME280;5220;43.192;23.284;2024-03-06T06:33:44;96905.63;;;6.98;100.00
10348;BME280;5220;43.192;23.284;2024-03-06T06:36:11;96909.16;;;6.97;100.00
10348;BME280;5220;43.192;23.284;2024-03-06T06:38:39;96915.06;;;6.85;100.00
10348;BME280;5220;43.192;23.284;2024-03-06T06:41:06;96915.59;;;7.04;100.00
10348;BME280;5220;43.192;23.284;2024-03-06T06:43:32;96914.78;;;7.18;100.00
10348;BME280;5220;43.192;23.284;2024-03-06T06:45:59;96914.34;;;7.25;100.00
10348;BME280;5220;43.192;23.284;2024-03-06T06:48:26;96928.56;;;7.32;100.00
10348;BME280;5220;43.192;23.284;2024-03-06T06:50:53;96928.19;;;7.38;100.00
10348;BME280;5220;43.192;23.284;2024-03-06T06:53:20;96914.78;;;7.46;100.00
10348;BME280;5220;43.192;23.284;2024-03-06T06:55:48;96918.03;;;7.49;100.00
10348;BME280;5220;43.192;23.284;2024-03-06T06:58:14;96923.00;;;7.52;100.00
10348;BME280;5220;43.192;23.284;2024-03-06T07:00:41;96928.00;;;7.55;100.00
10348;BME280;5220;43.192;23.284;2024-03-06T07:03:08;96932.69;;;7.63;100.00
10348;BME280;5220;43.192;23.284;2024-03-06T07:05:35;96930.66;;;7.68;100.00
10348;BME280;5220;43.192;23.284;2024-03-06T07:08:02;96934.81;;;7.71;100.00
10348;BME280;5220;43.192;23.284;2024-03-06T07:10:29;96938.06;;;7.74;100.00
10348;BME280;5220;43.192;23.284;2024-03-06T07:12:57;96941.47;;;7.75;100.00
10348;BME280;5220;43.192;23.284;2024-03-06T07:15:24;96942.31;;;7.75;100.00
10348;BME280;5220;43.192;23.284;2024-03-06T07:17:50;96944.06;;;7.75;100.00
10348;BME280;5220;43.192;23.284;2024-03-06T07:20:17;96952.22;;;7.69;100.00
10348;BME280;5220;43.192;23.284;2024-03-06T07:22:44;96956.38;;;7.71;100.00
10348;BME280;5220;43.192;23.284;2024-03-06T07:25:11;96948.94;;;7.79;100.00
10348;BME280;5220;43.192;23.284;2024-03-06T07:27:37;96955.59;;;7.83;100.00
10348;BME280;5220;43.192;23.284;2024-03-06T07:30:07;96955.69;;;7.82;100.00
10348;BME280;5220;43.192;23.284;2024-03-06T07:32:34;96954.38;;;7.89;100.00
10348;BME280;5220;43.192;23.284;2024-03-06T07:35:01;96961.97;;;7.92;100.00
10348;BME280;5220;43.192;23.284;2024-03-06T07:37:27;96954.88;;;7.81;100.00
10348;BME280;5220;43.192;23.284;2024-03-06T07:39:54;96960.28;;;7.91;100.00
10348;BME280;5220;43.192;23.284;2024-03-06T07:42:21;96963.19;;;7.86;100.00
10348;BME280;5220;43.192;23.284;2024-03-06T07:44:47;96965.47;;;7.91;100.00
10348;BME280;5220;43.192;23.284;2024-03-06T07:47:15;96961.78;;;7.95;100.00
10348;BME280;5220;43.192;23.284;2024-03-06T07:49:42;96972.88;;;7.97;100.00
10348;BME280;5220;43.192;23.284;2024-03-06T07:52:10;96964.94;;;8.00;100.00
10348;BME280;5220;43.192;23.284;2024-03-06T07:54:36;96959.81;;;7.98;100.00
10348;BME280;5220;43.192;23.284;2024-03-06T07:57:05;96960.03;;;7.95;100.00
10348;BME280;5220;43.192;23.284;2024-03-06T07:59:31;96963.97;;;8.01;100.00
10348;BME280;5220;43.192;23.284;2024-03-06T08:01:58;96961.13;;;8.05;100.00
10348;BME280;5220;43.192;23.284;2024-03-06T08:04:27;96968.69;;;8.08;100.00
10348;BME280;5220;43.192;23.284;2024-03-06T08:06:54;96966.19;;;8.07;100.00
10348;BME280;5220;43.192;23.284;2024-03-06T08:09:21;96965.28;;;8.08;100.00
10348;BME280;5220;43.192;23.284;2024-03-06T08:11:49;96969.53;;;8.09;100.00
10348;BME280;5220;43.192;23.284;2024-03-06T08:14:15;96959.16;;;8.09;100.00
10348;BME280;5220;43.192;23.284;2024-03-06T08:16:42;96955.53;;;8.11;100.00
10348;BME280;5220;43.192;23.284;2024-03-06T08:19:09;96952.97;;;8.11;100.00
10348;BME280;5220;43.192;23.284;2024-03-06T08:21:37;96956.81;;;8.19;100.00
10348;BME280;5220;43.192;23.284;2024-03-06T08:24:04;96966.44;;;8.31;100.00
10348;BME280;5220;43.192;23.284;2024-03-06T08:26:31;96965.94;;;8.38;100.00
10348;BME280;5220;43.192;23.284;2024-03-06T08:28:58;96968.19;;;8.30;100.00
10348;BME280;5220;43.192;23.284;2024-03-06T08:31:24;96968.38;;;8.27;100.00
10348;BME280;5220;43.192;23.284;2024-03-06T08:33:51;96962.22;;;8.42;100.00
10348;BME280;5220;43.192;23.284;2024-03-06T08:36:19;96962.94;;;8.44;100.00
10348;BME280;5220;43.192;23.284;2024-03-06T08:38:48;96968.13;;;8.44;100.00
10348;BME280;5220;43.192;23.284;2024-03-06T08:41:15;96967.31;;;8.44;100.00
10348;BME280;5220;43.192;23.284;2024-03-06T08:43:42;96964.34;;;8.62;100.00
10348;BME280;5220;43.192;23.284;2024-03-06T08:46:08;96970.41;;;8.76;100.00
10348;BME280;5220;43.192;23.284;2024-03-06T08:48:35;96974.00;;;8.60;100.00
10348;BME280;5220;43.192;23.284;2024-03-06T08:51:03;96967.06;;;8.61;100.00
10348;BME280;5220;43.192;23.284;2024-03-06T08:53:36;96976.72;;;8.59;100.00
10348;BME280;5220;43.192;23.284;2024-03-06T08:56:04;96977.00;;;8.54;100.00
10348;BME280;5220;43.192;23.284;2024-03-06T08:58:31;96979.03;;;8.76;100.00
10348;BME280;5220;43.192;23.284;2024-03-06T09:00:59;96991.56;;;8.70;100.00
10348;BME280;5220;43.192;23.284;2024-03-06T09:03:26;96985.06;;;8.89;100.00
10348;BME280;5220;43.192;23.284;2024-03-06T09:05:52;96992.13;;;9.00;100.00
10348;BME280;5220;43.192;23.284;2024-03-06T09:08:19;96989.25;;;9.04;100.00
10348;BME280;5220;43.192;23.284;2024-03-06T09:10:46;96984.69;;;9.08;100.00
10348;BME280;5220;43.192;23.284;2024-03-06T09:13:14;96984.03;;;8.92;100.00
10348;BME280;5220;43.192;23.284;2024-03-06T09:15:40;96981.25;;;8.95;100.00
10348;BME280;5220;43.192;23.284;2024-03-06T09:18:07;96989.13;;;8.93;100.00
10348;BME280;5220;43.192;23.284;2024-03-06T09:20:34;96987.16;;;8.97;100.00
10348;BME280;5220;43.192;23.284;2024-03-06T09:23:00;96988.53;;;9.02;100.00
10348;BME280;5220;43.192;23.284;2024-03-06T09:25:28;96987.56;;;8.91;100.00
10348;BME280;5220;43.192;23.284;2024-03-06T09:27:55;96990.69;;;8.96;100.00
10348;BME280;5220;43.192;23.284;2024-03-06T09:30:23;96994.66;;;9.14;100.00
10348;BME280;5220;43.192;23.284;2024-03-06T09:32:50;96985.13;;;9.27;100.00
10348;BME280;5220;43.192;23.284;2024-03-06T09:35:17;96990.41;;;9.38;100.00
10348;BME280;5220;43.192;23.284;2024-03-06T09:37:45;96987.94;;;9.49;100.00
10348;BME280;5220;43.192;23.284;2024-03-06T09:40:20;96984.28;;;9.52;100.00
10348;BME280;5220;43.192;23.284;2024-03-06T09:42:48;96993.00;;;9.51;100.00
10348;BME280;5220;43.192;23.284;2024-03-06T09:45:14;96987.81;;;9.63;100.00
10348;BME280;5220;43.192;23.284;2024-03-06T09:47:43;96995.50;;;9.65;100.00
10348;BME280;5220;43.192;23.284;2024-03-06T09:50:12;96987.72;;;9.52;100.00
10348;BME280;5220;43.192;23.284;2024-03-06T09:52:43;96983.34;;;9.40;100.00
10348;BME280;5220;43.192;23.284;2024-03-06T09:55:11;96984.72;;;9.46;100.00
10348;BME280;5220;43.192;23.284;2024-03-06T09:57:40;96986.78;;;9.53;100.00
10348;BME280;5220;43.192;23.284;2024-03-06T10:00:08;96987.59;;;9.54;100.00
10348;BME280;5220;43.192;23.284;2024-03-06T10:02:39;96974.84;;;9.38;100.00
10348;BME280;5220;43.192;23.284;2024-03-06T10:05:21;96981.38;;;9.56;100.00
10348;BME280;5220;43.192;23.284;2024-03-06T10:07:50;96978.28;;;9.51;100.00
10348;BME280;5220;43.192;23.284;2024-03-06T10:10:18;96987.41;;;9.57;100.00
10348;BME280;5220;43.192;23.284;2024-03-06T10:12:45;96973.47;;;9.70;100.00
10348;BME280;5220;43.192;23.284;2024-03-06T10:15:13;96971.59;;;9.72;100.00
10348;BME280;5220;43.192;23.284;2024-03-06T10:17:40;96962.88;;;9.61;100.00
10348;BME280;5220;43.192;23.284;2024-03-06T10:20:17;96970.44;;;9.89;100.00
10348;BME280;5220;43.192;23.284;2024-03-06T10:22:47;96973.22;;;9.99;100.00
10348;BME280;5220;43.192;23.284;2024-03-06T10:25:14;96965.72;;;9.94;100.00
10348;BME280;5220;43.192;23.284;2024-03-06T10:27:40;96966.19;;;10.24;100.00
10348;BME280;5220;43.192;23.284;2024-03-06T10:30:08;96971.69;;;10.33;100.00
10348;BME280;5220;43.192;23.284;2024-03-06T10:32:36;96972.78;;;10.41;100.00
10348;BME280;5220;43.192;23.284;2024-03-06T10:35:04;96968.50;;;10.40;100.00
10348;BME280;5220;43.192;23.284;2024-03-06T10:37:32;96956.03;;;10.45;100.00
10348;BME280;5220;43.192;23.284;2024-03-06T10:40:02;96961.78;;;10.61;100.00
10348;BME280;5220;43.192;23.284;2024-03-06T10:42:32;96969.84;;;10.69;100.00
10348;BME280;5220;43.192;23.284;2024-03-06T10:44:59;96964.91;;;10.77;100.00
10348;BME280;5220;43.192;23.284;2024-03-06T10:47:28;96963.66;;;10.59;100.00
10348;BME280;5220;43.192;23.284;2024-03-06T10:49:59;96963.09;;;10.67;100.00
10348;BME280;5220;43.192;23.284;2024-03-06T10:52:27;96965.25;;;10.73;100.00
10348;BME280;5220;43.192;23.284;2024-03-06T10:54:54;96954.25;;;10.80;100.00
10348;BME280;5220;43.192;23.284;2024-03-06T10:57:25;96949.78;;;10.83;100.00
10348;BME280;5220;43.192;23.284;2024-03-06T10:59:52;96946.59;;;10.90;100.00
10348;BME280;5220;43.192;23.284;2024-03-06T11:02:19;96946.28;;;10.95;100.00
10348;BME280;5220;43.192;23.284;2024-03-06T11:04:47;96944.88;;;11.02;100.00
10348;BME280;5220;43.192;23.284;2024-03-06T11:07:14;96949.50;;;10.98;100.00
10348;BME280;5220;43.192;23.284;2024-03-06T11:09:41;96943.91;;;11.03;100.00
10348;BME280;5220;43.192;23.284;2024-03-06T11:12:08;96936.56;;;10.86;100.00
10348;BME280;5220;43.192;23.284;2024-03-06T11:14:38;96935.63;;;10.98;100.00
10348;BME280;5220;43.192;23.284;2024-03-06T11:17:06;96933.41;;;11.04;100.00
10348;BME280;5220;43.192;23.284;2024-03-06T11:23:03;96916.63;;;11.08;100.00
10348;BME280;5220;43.192;23.284;2024-03-06T11:26:01;96913.78;;;11.11;100.00
10348;BME280;5220;43.192;23.284;2024-03-06T11:28:30;96911.66;;;11.27;100.00
10348;BME280;5220;43.192;23.284;2024-03-06T11:30:59;96909.50;;;11.21;100.00
10348;BME280;5220;43.192;23.284;2024-03-06T11:33:36;96907.97;;;11.19;100.00
10348;BME280;5220;43.192;23.284;2024-03-06T11:36:20;96910.47;;;11.43;100.00
10348;BME280;5220;43.192;23.284;2024-03-06T11:38:50;96913.81;;;11.45;100.00
10348;BME280;5220;43.192;23.284;2024-03-06T11:41:18;96905.28;;;11.54;100.00
10348;BME280;5220;43.192;23.284;2024-03-06T11:43:45;96903.63;;;11.64;100.00
10348;BME280;5220;43.192;23.284;2024-03-06T11:46:17;96901.84;;;11.64;100.00
10348;BME280;5220;43.192;23.284;2024-03-06T11:48:51;96899.59;;;11.49;100.00
10348;BME280;5220;43.192;23.284;2024-03-06T11:51:18;96894.50;;;11.47;100.00
10348;BME280;5220;43.192;23.284;2024-03-06T11:53:45;96892.13;;;11.55;100.00
10348;BME280;5220;43.192;23.284;2024-03-06T11:56:12;96893.53;;;11.59;100.00
10348;BME280;5220;43.192;23.284;2024-03-06T11:58:39;96885.50;;;11.62;100.00
10348;BME280;5220;43.192;23.284;2024-03-06T12:01:07;96886.34;;;11.29;100.00
10348;BME280;5220;43.192;23.284;2024-03-06T12:03:35;96886.56;;;11.26;100.00
10348;BME280;5220;43.192;23.284;2024-03-06T12:06:02;96885.75;;;11.48;100.00
10348;BME280;5220;43.192;23.284;2024-03-06T12:08:29;96889.16;;;11.60;100.00
10348;BME280;5220;43.192;23.284;2024-03-06T12:10:56;96891.19;;;11.67;100.00
10348;BME280;5220;43.192;23.284;2024-03-06T12:13:24;96885.97;;;11.67;100.00
10348;BME280;5220;43.192;23.284;2024-03-06T12:15:51;96874.28;;;11.73;100.00
10348;BME280;5220;43.192;23.284;2024-03-06T12:18:18;96876.34;;;11.68;100.00
10348;BME280;5220;43.192;23.284;2024-03-06T12:20:49;96871.75;;;11.16;100.00
10348;BME280;5220;43.192;23.284;2024-03-06T12:23:20;96865.25;;;11.44;100.00
10348;BME280;5220;43.192;23.284;2024-03-06T12:26:02;96865.13;;;11.56;100.00
10348;BME280;5220;43.192;23.284;2024-03-06T12:28:29;96868.44;;;11.69;100.00
10348;BME280;5220;43.192;23.284;2024-03-06T12:30:57;96870.34;;;11.78;100.00
10348;BME280;5220;43.192;23.284;2024-03-06T12:33:26;96871.88;;;11.92;100.00
10348;BME280;5220;43.192;23.284;2024-03-06T12:36:04;96864.59;;;12.07;100.00
10348;BME280;5220;43.192;23.284;2024-03-06T12:38:32;96861.81;;;12.19;100.00
10348;BME280;5220;43.192;23.284;2024-03-06T12:40:59;96857.63;;;12.28;100.00
10348;BME280;5220;43.192;23.284;2024-03-06T12:43:26;96857.91;;;12.46;100.00
10348;BME280;5220;43.192;23.284;2024-03-06T12:45:54;96867.13;;;12.61;100.00
10348;BME280;5220;43.192;23.284;2024-03-06T12:48:22;96864.19;;;12.75;100.00
10348;BME280;5220;43.192;23.284;2024-03-06T12:50:49;96852.13;;;12.83;100.00
10348;BME280;5220;43.192;23.284;2024-03-06T12:53:21;96859.28;;;12.61;100.00
10348;BME280;5220;43.192;23.284;2024-03-06T12:55:48;96857.03;;;12.77;100.00
10348;BME280;5220;43.192;23.284;2024-03-06T12:58:15;96857.03;;;12.77;100.00
10348;BME280;5220;43.192;23.284;2024-03-06T13:00:42;96854.94;;;12.91;100.00
10348;BME280;5220;43.192;23.284;2024-03-06T13:03:09;96859.19;;;12.92;100.00